Time;durP1;ratioP1;P1;durP2;ratioP2;P2;SDS_P1;SDS_P2;PMS_P1;PMS_P2;Temp;Humidity;BMP_temperature;BMP_pressure;BME280_temperature;BME280_humidity;BME280_pressure;Samples;Min_cycle;Max_cycle;Signal;HPM_P1;HPM_P2
2022/01/13 00:02:31;;;;;;;31.30;12.48;;;;;;;3.41;100.00;104165.66;10116159;29;20479;-76
2022/01/13 00:07:31;;;;;;;11.43;9.10;;;;;;;3.40;100.00;104169.28;10115382;29;20068;-76
2022/01/13 00:12:37;;;;;;;40.08;12.15;;;;;;;3.43;100.00;104171.84;10100829;29;20334;-76
2022/01/13 00:17:57;;;;;;;21.40;8.77;;;;;;;3.46;100.00;104169.00;10114456;29;20033;-76
2022/01/13 00:28:20;;;;;;;25.63;12.00;;;;;;;3.58;100.00;104161.34;10099832;29;20068;-76
2022/01/13 00:33:24;;;;;;;61.22;14.07;;;;;;;3.47;100.00;104159.16;10100074;29;20049;-76
2022/01/13 00:38:25;;;;;;;34.45;11.40;;;;;;;3.44;100.00;104153.94;10100754;29;20037;-76
2022/01/13 00:43:26;;;;;;;40.17;13.73;;;;;;;3.33;100.00;104157.13;10100403;29;20033;-76
2022/01/13 00:48:26;;;;;;;27.05;11.80;;;;;;;3.31;100.00;104161.66;10115431;29;20040;-76
2022/01/13 00:53:26;;;;;;;24.35;13.55;;;;;;;3.37;100.00;104164.06;10099107;29;20053;-76
2022/01/13 00:58:29;;;;;;;75.95;18.10;;;;;;;3.47;100.00;104162.69;10099691;29;20041;-76
2022/01/13 01:03:29;;;;;;;52.03;19.40;;;;;;;3.53;100.00;104172.28;10097732;29;20041;-76
2022/01/13 01:08:31;;;;;;;42.45;18.10;;;;;;;3.55;100.00;104169.53;10098911;29;20136;-76
2022/01/13 01:13:33;;;;;;;102.95;20.33;;;;;;;3.61;100.00;104171.94;10096801;29;20045;-76
2022/01/13 01:28:56;;;;;;;29.50;19.13;;;;;;;3.73;100.00;104184.75;10098876;29;20048;-76
2022/01/13 01:39:03;;;;;;;41.85;21.33;;;;;;;3.84;100.00;104178.88;10111986;29;20041;-76
2022/01/13 01:44:20;;;;;;;54.97;24.17;;;;;;;3.92;100.00;104180.28;10112321;29;20048;-76
2022/01/13 01:49:24;;;;;;;61.10;24.35;;;;;;;3.96;100.00;104189.91;10099493;29;20029;-76
2022/01/13 01:54:25;;;;;;;51.55;21.67;;;;;;;3.99;100.00;104183.53;10100521;29;20039;-75
2022/01/13 01:59:29;;;;;;;37.30;18.45;;;;;;;3.99;100.00;104172.81;10111978;29;20059;-76
2022/01/13 02:04:30;;;;;;;55.15;23.33;;;;;;;4.04;100.00;104185.97;10096374;29;20045;-75
2022/01/13 02:09:31;;;;;;;57.42;22.50;;;;;;;4.00;100.00;104184.38;10111395;29;20139;-76
2022/01/13 02:14:35;;;;;;;48.95;22.23;;;;;;;4.06;100.00;104170.69;10097314;29;20143;-76
2022/01/13 02:19:40;;;;;;;49.78;19.83;;;;;;;4.01;100.00;104170.03;10096719;29;20041;-76
2022/01/13 02:24:40;;;;;;;50.22;22.08;;;;;;;3.98;100.00;104168.34;10096418;29;20465;-76
2022/01/13 02:29:40;;;;;;;76.85;19.83;;;;;;;4.00;100.00;104157.56;10112417;29;20041;-76
2022/01/13 02:34:41;;;;;;;50.58;16.83;;;;;;;3.95;100.00;104147.91;10096423;29;20062;-76
2022/01/13 02:39:41;;;;;;;49.90;20.50;;;;;;;3.97;100.00;104135.31;10100857;29;20036;-76
2022/01/13 02:44:50;;;;;;;63.15;17.27;;;;;;;3.96;100.00;104128.22;10104641;29;20057;-76
2022/01/13 02:49:50;;;;;;;53.88;19.15;;;;;;;3.88;100.00;104117.00;10103115;29;20124;-76
2022/01/13 02:54:51;;;;;;;57.22;21.23;;;;;;;3.90;100.00;104123.16;10102707;29;20040;-76
2022/01/13 02:59:51;;;;;;;38.65;19.52;;;;;;;3.92;100.00;104118.59;10118080;29;20093;-76
2022/01/13 03:04:51;;;;;;;57.60;18.88;;;;;;;3.93;100.00;104122.16;10119806;29;20454;-75
2022/01/13 03:09:52;;;;;;;48.38;20.17;;;;;;;3.92;100.00;104125.75;10101633;29;20049;-75
2022/01/13 03:14:53;;;;;;;35.85;19.85;;;;;;;4.02;100.00;104118.13;10101855;29;20048;-75
2022/01/13 03:19:53;;;;;;;44.50;19.52;;;;;;;4.04;100.00;104118.94;10103000;29;20040;-76
2022/01/13 03:24:53;;;;;;;50.13;20.95;;;;;;;4.04;100.00;104121.63;10102831;29;20037;-76
2022/01/13 03:29:54;;;;;;;39.10;20.10;;;;;;;4.08;100.00;104113.31;10102559;29;20140;-75
2022/01/13 03:34:54;;;;;;;49.03;21.45;;;;;;;4.12;100.00;104111.38;10102417;29;20069;-76
2022/01/13 03:39:55;;;;;;;61.13;23.60;;;;;;;4.14;100.00;104107.66;10116772;29;20047;-75
2022/01/13 03:44:55;;;;;;;85.40;24.80;;;;;;;4.20;100.00;104109.16;10100817;29;20041;-76
2022/01/13 03:49:55;;;;;;;43.15;21.92;;;;;;;4.20;100.00;104106.50;10100891;29;20037;-76
2022/01/13 03:55:33;;;;;;;53.40;22.05;;;;;;;4.17;100.00;104101.28;10101789;29;20097;-75
2022/01/13 04:01:05;;;;;;;41.70;21.88;;;;;;;4.17;100.00;104102.16;10100910;29;20056;-75
2022/01/13 04:06:33;;;;;;;71.28;26.52;;;;;;;4.17;100.00;104101.28;10101850;29;20561;-76
2022/01/13 04:11:33;;;;;;;57.17;23.65;;;;;;;4.20;100.00;104106.50;10101114;29;20116;-76
2022/01/13 04:16:36;;;;;;;75.88;26.40;;;;;;;4.19;100.00;104112.81;10084658;29;20101;-75
2022/01/13 04:21:37;;;;;;;85.50;26.83;;;;;;;4.23;100.00;104114.38;10100840;29;20044;-75
2022/01/13 04:26:42;;;;;;;49.17;24.90;;;;;;;4.22;100.00;104104.63;10114858;29;20427;-76
2022/01/13 04:31:45;;;;;;;45.00;24.52;;;;;;;4.20;100.00;104098.44;10115011;29;20446;-76
2022/01/13 04:36:45;;;;;;;34.03;18.45;;;;;;;4.20;100.00;104102.00;10099525;29;20041;-76
2022/01/13 04:41:47;;;;;;;43.30;25.92;;;;;;;4.22;100.00;104101.06;10115028;29;20176;-75
2022/01/13 04:46:49;;;;;;;87.75;27.92;;;;;;;4.15;100.00;104100.50;10099251;29;20127;-76
2022/01/13 04:51:51;;;;;;;33.63;21.05;;;;;;;4.19;100.00;104107.44;10098960;29;20127;-75
2022/01/13 05:01:52;;;;;;;52.92;26.27;;;;;;;4.20;100.00;104099.31;10098897;29;20075;-76
2022/01/13 05:06:52;;;;;;;63.17;26.55;;;;;;;4.20;100.00;104103.81;10098698;29;20057;-75
2022/01/13 05:11:53;;;;;;;41.30;23.80;;;;;;;4.26;100.00;104105.31;10097159;29;20041;-76
2022/01/13 05:17:00;;;;;;;68.70;28.25;;;;;;;4.29;100.00;104108.72;10113059;29;20048;-75
2022/01/13 05:27:01;;;;;;;50.03;21.60;;;;;;;4.27;100.00;104113.28;10100107;29;20132;-75
2022/01/13 05:32:01;;;;;;;54.60;26.98;;;;;;;4.28;100.00;104107.00;10115901;29;20422;-76
2022/01/13 05:37:02;;;;;;;77.20;26.85;;;;;;;4.36;100.00;104107.44;10099219;29;20033;-75
2022/01/13 05:42:03;;;;;;;36.15;20.90;;;;;;;4.34;100.00;104098.63;10098530;29;20041;-75
2022/01/13 05:47:03;;;;;;;49.33;28.27;;;;;;;4.37;100.00;104097.56;10097276;29;20041;-75
2022/01/13 05:52:04;;;;;;;37.75;20.17;;;;;;;4.27;100.00;104090.94;10097703;29;20488;-75
2022/01/13 05:57:04;;;;;;;41.28;26.08;;;;;;;4.19;100.00;104094.03;10111858;29;20041;-72
2022/01/13 06:02:05;;;;;;;52.10;24.10;;;;;;;4.26;100.00;104092.78;10097856;29;20362;-76
2022/01/13 06:07:05;;;;;;;51.92;27.48;;;;;;;4.32;100.00;104105.00;10113247;29;20049;-74
2022/01/13 06:12:06;;;;;;;74.82;27.50;;;;;;;4.39;100.00;104098.38;10095947;29;20120;-75
2022/01/13 06:17:06;;;;;;;68.60;29.08;;;;;;;4.39;100.00;104103.75;10104565;29;20033;-75
2022/01/13 06:22:07;;;;;;;56.85;29.42;;;;;;;4.39;100.00;104106.44;10104369;29;20037;-75
2022/01/13 06:27:08;;;;;;;62.22;30.95;;;;;;;4.47;100.00;104093.50;10104773;29;20045;-75
2022/01/13 06:32:08;;;;;;;62.50;27.55;;;;;;;4.36;100.00;104099.41;10105120;29;20401;-75
2022/01/13 06:37:09;;;;;;;44.53;26.85;;;;;;;4.47;100.00;104103.34;10118121;29;20131;-75
2022/01/13 06:42:09;;;;;;;80.07;31.42;;;;;;;4.45;100.00;104091.84;10105461;29;20049;-75
2022/01/13 06:47:10;;;;;;;76.57;26.90;;;;;;;4.46;100.00;104098.94;10104767;29;20041;-75
2022/01/13 06:52:10;;;;;;;65.07;30.08;;;;;;;4.40;100.00;104105.47;10103254;29;20037;-75
2022/01/13 06:57:10;;;;;;;48.72;27.23;;;;;;;4.47;100.00;104106.03;10104499;29;20045;-75
2022/01/13 07:02:12;;;;;;;49.35;26.58;;;;;;;4.50;100.00;104104.09;10103702;29;20485;-75
2022/01/13 07:07:12;;;;;;;42.30;23.88;;;;;;;4.54;100.00;104107.47;10104664;29;20108;-75
2022/01/13 07:12:13;;;;;;;47.30;25.65;;;;;;;4.49;100.00;104109.50;10103794;29;20478;-75
2022/01/13 07:17:13;;;;;;;38.85;19.70;;;;;;;4.46;100.00;104107.84;10103754;29;20041;-75
2022/01/13 07:22:17;;;;;;;83.60;30.38;;;;;;;4.46;100.00;104102.47;10116806;29;20029;-75
2022/01/13 07:27:18;;;;;;;49.25;25.10;;;;;;;4.41;100.00;104105.41;10102185;29;20036;-75
2022/01/13 07:32:18;;;;;;;70.72;29.13;;;;;;;4.38;100.00;104099.34;10101989;29;20041;-75
2022/01/13 07:37:20;;;;;;;50.05;28.35;;;;;;;4.45;100.00;104111.50;10102744;29;20386;-75
2022/01/13 07:42:23;;;;;;;49.83;26.92;;;;;;;4.49;100.00;104107.69;10102889;29;20033;-75
2022/01/13 07:47:24;;;;;;;57.38;29.23;;;;;;;4.54;100.00;104116.38;10101305;29;20068;-75
2022/01/13 07:52:26;;;;;;;54.92;27.77;;;;;;;4.61;100.00;104122.31;10102434;29;20072;-75
2022/01/13 07:57:27;;;;;;;71.10;29.58;;;;;;;4.63;100.00;104140.06;10101785;29;20065;-75
2022/01/13 08:02:27;;;;;;;61.42;27.48;;;;;;;4.69;100.00;104138.91;10101520;29;20128;-75
2022/01/13 08:07:28;;;;;;;54.10;29.38;;;;;;;4.64;100.00;104125.69;10101231;29;20057;-75
2022/01/13 08:12:28;;;;;;;38.35;25.77;;;;;;;4.71;100.00;104130.75;10100554;29;20493;-75
2022/01/13 08:22:48;;;;;;;50.05;24.42;;;;;;;4.79;100.00;104132.09;10100867;29;20040;-75
2022/01/13 08:27:49;;;;;;;38.30;23.42;;;;;;;4.82;100.00;104134.63;10101567;29;20493;-75
2022/01/13 08:32:49;;;;;;;58.40;24.77;;;;;;;4.85;100.00;104133.56;10114490;29;20051;-75
2022/01/13 08:37:50;;;;;;;48.85;22.13;;;;;;;4.89;100.00;104138.72;10099537;29;20041;-75
2022/01/13 08:42:50;;;;;;;42.88;22.55;;;;;;;4.97;100.00;104140.97;10099786;29;20041;-75
2022/01/13 08:47:50;;;;;;;41.60;25.33;;;;;;;5.02;100.00;104141.63;10098665;29;20033;-75
2022/01/13 08:52:51;;;;;;;53.45;23.83;;;;;;;5.04;100.00;104139.72;10113385;29;20506;-75
2022/01/13 08:57:52;;;;;;;61.58;23.13;;;;;;;5.11;100.00;104146.50;10099944;29;20121;-75
2022/01/13 09:02:52;;;;;;;42.08;21.90;;;;;;;5.24;100.00;104152.09;10098727;29;20044;-75
2022/01/13 09:07:53;;;;;;;44.13;20.08;;;;;;;5.30;100.00;104149.06;10097958;29;20077;-75
2022/01/13 09:12:53;;;;;;;38.85;22.17;;;;;;;5.39;100.00;104149.50;10098165;29;20045;-75
2022/01/13 09:17:54;;;;;;;49.17;24.00;;;;;;;5.39;100.00;104163.81;10098879;29;20061;-75
2022/01/13 09:22:55;;;;;;;53.75;23.83;;;;;;;5.42;100.00;104152.88;10098558;29;20041;-75
2022/01/13 09:27:56;;;;;;;41.95;25.35;;;;;;;5.42;100.00;104154.72;10097759;29;20037;-75
2022/01/13 09:32:56;;;;;;;52.13;25.70;;;;;;;5.43;100.00;104138.53;10112312;29;20037;-75
2022/01/13 09:37:56;;;;;;;52.15;27.08;;;;;;;5.40;100.00;104136.00;10099027;29;20049;-75
2022/01/13 09:42:57;;;;;;;49.88;23.88;;;;;;;5.45;100.00;104135.72;10098071;29;20029;-75
2022/01/13 09:47:57;;;;;;;62.15;30.30;;;;;;;5.52;100.00;104146.09;10095399;29;20036;-75
2022/01/13 09:52:58;;;;;;;45.45;27.38;;;;;;;5.59;100.00;104149.28;10081213;29;20123;-75
2022/01/13 09:58:03;;;;;;;72.88;29.65;;;;;;;5.54;100.00;104146.84;10098622;29;20049;-75
2022/01/13 10:03:17;;;;;;;57.03;29.27;;;;;;;5.53;100.00;104150.50;10111128;29;20068;-75
2022/01/13 10:08:20;;;;;;;57.78;27.70;;;;;;;5.64;100.00;104152.56;10111377;29;20045;-75
2022/01/13 10:13:39;;;;;;;69.35;30.77;;;;;;;5.69;100.00;104150.50;10097288;29;20040;-75
2022/01/13 10:18:44;;;;;;;64.05;30.30;;;;;;;5.76;100.00;104153.72;10098299;29;20055;-75
2022/01/13 10:24:12;;;;;;;47.75;28.98;;;;;;;5.83;100.00;104158.66;10096660;29;20033;-75
2022/01/13 10:29:13;;;;;;;54.67;27.80;;;;;;;5.83;100.00;104147.91;10097971;29;20190;-74
2022/01/13 10:34:26;;;;;;;56.03;29.20;;;;;;;5.90;100.00;104151.09;10096338;29;20040;-75
2022/01/13 10:39:57;;;;;;;71.88;29.02;;;;;;;5.97;100.00;104143.63;10096512;29;20131;-75
2022/01/13 10:44:58;;;;;;;60.05;30.25;;;;;;;6.04;100.00;104142.31;10097137;29;20047;-75
2022/01/13 10:50:04;;;;;;;55.90;29.83;;;;;;;6.07;100.00;104128.69;10096354;29;20044;-75
2022/01/13 10:55:17;;;;;;;56.78;28.77;;;;;;;6.09;100.00;104121.38;10096286;29;20115;-75
2022/01/13 11:00:22;;;;;;;54.28;29.45;;;;;;;6.16;100.00;104132.63;10099011;29;20056;-75
2022/01/13 11:05:23;;;;;;;56.25;31.42;;;;;;;6.30;100.00;104124.63;10118568;29;20049;-75
2022/01/13 11:10:25;;;;;;;50.58;28.10;;;;;;;6.45;100.00;104122.88;10102329;29;20060;-75
2022/01/13 11:15:25;;;;;;;61.30;28.70;;;;;;;6.53;100.00;104116.06;10117334;29;20037;-75
2022/01/13 11:20:26;;;;;;;53.90;27.13;;;;;;;6.52;100.00;104106.25;10101680;29;20036;-75
2022/01/13 11:25:27;;;;;;;61.30;28.58;;;;;;;6.63;100.00;104107.44;10103121;29;20041;-75
2022/01/13 11:30:27;;;;;;;49.83;27.80;;;;;;;6.64;100.00;104110.03;10103311;29;20124;-75
2022/01/13 11:35:34;;;;;;;55.08;31.10;;;;;;;6.73;100.00;104117.56;10103738;29;20037;-75
2022/01/13 11:40:37;;;;;;;62.97;30.63;;;;;;;6.80;100.00;104101.91;10102531;29;20025;-75
2022/01/13 11:45:39;;;;;;;50.28;27.90;;;;;;;6.80;100.00;104101.03;10115862;29;20041;-75
2022/01/13 11:50:46;;;;;;;43.53;28.92;;;;;;;6.75;100.00;104110.25;10102740;29;20457;-75
2022/01/13 11:55:52;;;;;;;40.55;25.70;;;;;;;6.76;100.00;104103.03;10102865;29;20041;-75
2022/01/13 12:00:53;;;;;;;44.78;25.38;;;;;;;6.88;100.00;104090.63;10117004;29;20037;-75
2022/01/13 12:05:54;;;;;;;50.70;27.88;;;;;;;6.81;100.00;104086.59;10116268;29;20497;-75
2022/01/13 12:10:54;;;;;;;44.90;24.92;;;;;;;6.85;100.00;104078.22;10113460;29;20057;-75
2022/01/13 12:15:55;;;;;;;41.22;25.67;;;;;;;6.86;100.00;104069.19;10101031;29;20041;-75
2022/01/13 12:21:20;;;;;;;44.50;25.40;;;;;;;6.82;100.00;104080.22;10100872;29;20362;-76
2022/01/13 12:26:31;;;;;;;57.47;26.98;;;;;;;6.80;100.00;104055.25;10098275;29;20112;-75
2022/01/13 12:31:31;;;;;;;41.90;25.55;;;;;;;6.75;100.00;104045.59;10100024;29;20101;-75
2022/01/13 12:36:32;;;;;;;45.53;27.35;;;;;;;6.90;100.00;104042.94;10097865;29;20105;-75
2022/01/13 12:41:32;;;;;;;47.63;27.02;;;;;;;7.03;100.00;104040.31;10098823;29;20474;-75
2022/01/13 12:46:36;;;;;;;43.83;26.05;;;;;;;7.00;100.00;104046.75;10098898;29;20056;-75
2022/01/13 12:51:36;;;;;;;63.88;26.92;;;;;;;6.91;100.00;104040.13;10113768;29;20044;-75
2022/01/13 12:56:36;;;;;;;69.68;26.42;;;;;;;7.07;100.00;104034.63;10100291;29;20398;-75
2022/01/13 13:01:37;;;;;;;36.63;24.38;;;;;;;7.01;100.00;104037.72;10083650;29;20037;-75
2022/01/13 13:06:40;;;;;;;38.83;23.08;;;;;;;7.07;100.00;104034.63;10100349;29;20085;-75
2022/01/13 13:11:43;;;;;;;37.85;21.80;;;;;;;6.90;100.00;104024.94;10098689;29;20116;-75
2022/01/13 13:16:48;;;;;;;49.55;27.08;;;;;;;6.81;100.00;104025.50;10113322;29;20063;-75
2022/01/13 13:21:52;;;;;;;43.42;26.25;;;;;;;6.91;100.00;104023.94;10099197;29;20441;-74
2022/01/13 13:26:52;;;;;;;39.22;26.08;;;;;;;6.98;100.00;104021.72;10098766;29;20039;-75
2022/01/13 13:31:53;;;;;;;45.70;28.15;;;;;;;7.03;100.00;104014.25;10098544;29;20482;-75
2022/01/13 13:36:54;;;;;;;45.85;27.20;;;;;;;6.90;100.00;104021.38;10097638;29;20040;-75
2022/01/13 13:41:56;;;;;;;49.75;27.00;;;;;;;6.82;100.00;104013.75;10114368;29;20052;-75
2022/01/13 13:47:06;;;;;;;53.20;27.23;;;;;;;6.83;100.00;104014.63;10113113;29;20110;-75
2022/01/13 13:52:08;;;;;;;45.85;25.15;;;;;;;6.88;100.00;104017.91;10099418;29;20037;-75
2022/01/13 13:57:10;;;;;;;54.30;28.63;;;;;;;6.79;100.00;104021.16;10099243;29;20402;-75
2022/01/13 14:02:12;;;;;;;40.58;26.73;;;;;;;6.75;100.00;104012.41;10113937;29;20037;-75
2022/01/13 14:07:19;;;;;;;53.72;28.23;;;;;;;6.74;100.00;104014.25;10098251;29;20057;-74
2022/01/13 14:12:55;;;;;;;53.55;29.85;;;;;;;6.71;100.00;104021.66;10097691;29;20041;-75
2022/01/13 14:18:08;;;;;;;65.15;29.58;;;;;;;6.72;100.00;104028.75;10082076;29;20525;-75
2022/01/13 14:23:11;;;;;;;50.95;28.80;;;;;;;6.68;100.00;104027.22;10097795;29;20037;-75
2022/01/13 14:28:23;;;;;;;57.03;26.80;;;;;;;6.58;100.00;104026.06;10096961;29;20040;-75
2022/01/13 14:33:27;;;;;;;50.60;27.83;;;;;;;6.52;100.00;104021.94;10081317;29;20061;-75
2022/01/13 14:38:42;;;;;;;50.88;27.85;;;;;;;6.52;100.00;104016.53;10103490;29;20119;-74
2022/01/13 14:44:09;;;;;;;62.88;27.80;;;;;;;6.48;100.00;104018.56;10118128;29;20032;-75
2022/01/13 14:49:10;;;;;;;50.70;27.53;;;;;;;6.44;100.00;104019.69;10104900;29;20033;-75
2022/01/13 14:54:11;;;;;;;52.75;26.58;;;;;;;6.44;100.00;104019.69;10118128;29;20049;-74
2022/01/13 14:59:11;;;;;;;50.30;24.38;;;;;;;6.48;100.00;104023.09;10102625;29;20100;-75
2022/01/13 15:04:12;;;;;;;48.03;29.58;;;;;;;6.47;100.00;104014.13;10102779;29;20068;-75
2022/01/13 15:09:12;;;;;;;43.70;24.33;;;;;;;6.34;100.00;104006.88;10118756;29;20397;-74
2022/01/13 15:14:13;;;;;;;45.08;24.58;;;;;;;6.26;100.00;104013.63;10103873;29;20045;-75
2022/01/13 15:19:15;;;;;;;40.08;26.40;;;;;;;6.27;100.00;104015.34;10100857;29;20489;-75
2022/01/13 15:24:16;;;;;;;48.45;23.45;;;;;;;6.24;100.00;104015.53;10102876;29;20041;-75
2022/01/13 15:29:16;;;;;;;45.08;26.23;;;;;;;6.24;100.00;104009.28;10103113;29;20421;-75
2022/01/13 15:34:17;;;;;;;51.65;26.08;;;;;;;6.23;100.00;104011.09;10116405;29;20065;-75
2022/01/13 15:39:18;;;;;;;53.78;31.40;;;;;;;6.24;100.00;104010.13;10102325;29;20041;-74
2022/01/13 15:44:19;;;;;;;47.17;24.73;;;;;;;6.24;100.00;104012.81;10100909;29;20096;-75
2022/01/13 15:49:19;;;;;;;42.58;25.75;;;;;;;6.21;100.00;104013.00;10101903;29;20120;-75
2022/01/13 15:54:20;;;;;;;65.30;27.42;;;;;;;6.24;100.00;104014.66;10101729;29;20094;-75
2022/01/13 15:59:20;;;;;;;41.95;26.27;;;;;;;6.21;100.00;104012.16;10101542;29;20041;-74
2022/01/13 16:04:20;;;;;;;45.30;23.33;;;;;;;6.18;100.00;104009.66;10116048;29;20096;-75
2022/01/13 16:09:21;;;;;;;46.00;25.65;;;;;;;6.19;100.00;104004.19;10103435;29;20378;-75
2022/01/13 16:14:21;;;;;;;58.35;26.80;;;;;;;6.23;100.00;104011.09;10099480;29;20430;-74
2022/01/13 16:19:22;;;;;;;48.13;24.95;;;;;;;6.17;100.00;104011.47;10100500;29;20084;-74
2022/01/13 16:24:22;;;;;;;37.80;23.30;;;;;;;6.21;100.00;104012.16;10116468;29;20033;-75
2022/01/13 16:30:03;;;;;;;40.75;23.70;;;;;;;6.22;100.00;104017.47;10101578;29;20045;-75
2022/01/13 16:35:06;;;;;;;57.65;24.10;;;;;;;6.24;100.00;104020.91;10100021;29;20141;-75
2022/01/13 16:40:09;;;;;;;45.40;23.15;;;;;;;6.22;100.00;104000.41;10114380;29;20037;-75
2022/01/13 16:45:20;;;;;;;47.75;23.25;;;;;;;6.20;100.00;104007.75;10114279;29;20037;-75
2022/01/13 16:50:22;;;;;;;28.52;21.00;;;;;;;6.13;100.00;104003.69;10099172;29;20029;-75
2022/01/13 16:55:23;;;;;;;52.85;23.48;;;;;;;6.10;100.00;103993.13;10099049;29;20047;-75
2022/01/13 17:00:23;;;;;;;34.42;20.83;;;;;;;6.03;100.00;104003.34;10098772;29;20389;-75
2022/01/13 17:05:24;;;;;;;31.15;20.05;;;;;;;5.93;100.00;103988.72;10099868;29;20128;-75
2022/01/13 17:10:32;;;;;;;38.85;20.08;;;;;;;5.85;100.00;103982.91;10097573;29;20075;-75
2022/01/13 17:15:33;;;;;;;27.60;18.48;;;;;;;5.82;100.00;103979.44;10099155;29;20043;-75
2022/01/13 17:20:33;;;;;;;38.65;19.40;;;;;;;5.84;100.00;103968.59;10113409;29;20053;-75
2022/01/13 17:25:34;;;;;;;26.33;13.43;;;;;;;5.82;100.00;103971.38;10099884;29;20085;-75
2022/01/13 17:30:35;;;;;;;56.65;19.65;;;;;;;5.83;100.00;103975.78;10098543;29;20068;-75
2022/01/13 17:35:36;;;;;;;47.20;17.50;;;;;;;5.79;100.00;103974.25;10097185;29;20076;-75
2022/01/13 17:40:36;;;;;;;28.90;14.73;;;;;;;5.74;100.00;103976.34;10097471;29;20041;-75
2022/01/13 17:45:38;;;;;;;30.35;14.95;;;;;;;5.67;100.00;103977.63;10098134;29;20486;-75
2022/01/13 17:50:38;;;;;;;33.88;14.88;;;;;;;5.70;100.00;103985.53;10098305;29;20040;-75
2022/01/13 17:55:38;;;;;;;37.05;16.95;;;;;;;5.74;100.00;103976.34;10098285;29;20033;-74
2022/01/13 18:00:40;;;;;;;26.08;13.60;;;;;;;5.72;100.00;103977.38;10097319;29;20045;-75
2022/01/13 18:05:40;;;;;;;24.63;12.48;;;;;;;5.73;100.00;103974.59;10097720;29;20124;-75
2022/01/13 18:10:43;;;;;;;36.92;13.05;;;;;;;5.68;100.00;103962.38;10098692;29;20079;-74
2022/01/13 18:15:43;;;;;;;38.25;15.10;;;;;;;5.57;100.00;103961.19;10098173;29;20044;-75
2022/01/13 18:20:44;;;;;;;19.92;11.90;;;;;;;5.51;100.00;103958.00;10096489;29;20037;-75
2022/01/13 18:25:44;;;;;;;25.48;13.48;;;;;;;5.46;100.00;103962.78;10111210;29;20049;-74
2022/01/13 18:30:45;;;;;;;39.28;16.05;;;;;;;5.38;100.00;103959.66;10095860;29;20048;-74
2022/01/13 18:35:45;;;;;;;43.17;14.30;;;;;;;5.44;100.00;103951.25;10097280;29;20045;-75
2022/01/13 18:40:47;;;;;;;44.83;13.65;;;;;;;5.40;100.00;103947.88;10097321;29;20064;-75
2022/01/13 18:45:52;;;;;;;38.53;12.88;;;;;;;5.41;100.00;103951.41;10097888;29;20124;-74
2022/01/13 18:50:53;;;;;;;27.33;11.60;;;;;;;5.41;100.00;103951.41;10097466;29;20397;-75
2022/01/13 18:55:53;;;;;;;45.00;14.90;;;;;;;5.38;100.00;103944.41;10097104;29;20045;-74
2022/01/13 19:00:57;;;;;;;48.67;12.50;;;;;;;5.39;100.00;103953.31;10097076;29;20497;-73
2022/01/13 19:05:57;;;;;;;46.30;13.77;;;;;;;5.35;100.00;103940.06;10095591;29;20065;-74
2022/01/13 19:10:59;;;;;;;37.22;14.20;;;;;;;5.33;100.00;103943.81;10096319;29;20061;-75
2022/01/13 19:15:59;;;;;;;28.88;14.50;;;;;;;5.38;100.00;103941.72;10096492;29;20049;-75
2022/01/13 19:20:59;;;;;;;23.80;14.73;;;;;;;5.39;100.00;103934.50;10098713;29;20433;-74
2022/01/13 19:26:02;;;;;;;18.92;14.70;;;;;;;5.40;100.00;103929.06;10101797;29;20037;-74
2022/01/13 19:31:02;;;;;;;19.15;13.15;;;;;;;5.36;100.00;103931.06;10102614;29;20525;-74
2022/01/13 19:36:03;;;;;;;20.27;14.60;;;;;;;5.34;100.00;103919.53;10102825;29;20048;-74
2022/01/13 19:41:08;;;;;;;24.15;13.73;;;;;;;5.29;100.00;103918.91;10102062;29;20378;-74
2022/01/13 19:46:08;;;;;;;21.02;11.50;;;;;;;5.20;100.00;103908.72;10101704;29;20033;-73
2022/01/13 19:51:09;;;;;;;21.65;11.93;;;;;;;5.06;100.00;103914.00;10103142;29;20169;-73
2022/01/13 19:56:09;;;;;;;19.67;12.35;;;;;;;5.00;100.00;103898.25;10116555;29;20045;-74
2022/01/13 20:01:10;;;;;;;28.85;14.35;;;;;;;4.87;100.00;103906.13;10102243;29;20040;-74
2022/01/13 20:06:10;;;;;;;22.83;12.68;;;;;;;4.80;100.00;103900.22;10102478;29;20045;-74
2022/01/13 20:11:14;;;;;;;22.13;13.73;;;;;;;4.73;100.00;103906.91;10102478;29;20088;-74
2022/01/13 20:16:14;;;;;;;26.55;14.80;;;;;;;4.69;100.00;103899.09;10101375;29;20048;-73
2022/01/13 20:21:15;;;;;;;32.30;14.75;;;;;;;4.62;100.00;103907.47;10100662;29;20533;-75
2022/01/13 20:26:15;;;;;;;29.58;14.95;;;;;;;4.52;100.00;103897.34;10101161;29;20080;-73
2022/01/13 20:31:16;;;;;;;17.15;14.00;;;;;;;4.42;100.00;103911.25;10100141;29;20123;-74
2022/01/13 20:36:16;;;;;;;18.25;13.38;;;;;;;4.38;100.00;103911.53;10100593;29;20045;-73
2022/01/13 20:41:17;;;;;;;31.98;19.38;;;;;;;4.37;100.00;103915.13;10116095;29;20484;-75
2022/01/13 20:46:18;;;;;;;28.65;14.30;;;;;;;4.30;100.00;103906.56;10099518;29;20473;-73
2022/01/13 20:51:18;;;;;;;49.45;14.65;;;;;;;4.30;100.00;103911.06;10099984;29;20123;-73
2022/01/13 20:56:19;;;;;;;24.38;11.93;;;;;;;4.22;100.00;103906.13;10114302;29;20051;-74
2022/01/13 21:01:19;;;;;;;22.08;12.63;;;;;;;4.13;100.00;103907.47;10099443;29;20053;-73
2022/01/13 21:06:20;;;;;;;25.77;13.23;;;;;;;4.14;100.00;103898.47;10099299;29;20108;-73
2022/01/13 21:11:26;;;;;;;19.58;14.32;;;;;;;4.08;100.00;103893.41;10099785;29;20045;-73
2022/01/13 21:16:27;;;;;;;32.15;14.95;;;;;;;4.02;100.00;103899.13;10099497;29;20462;-73
2022/01/13 21:21:28;;;;;;;20.52;13.60;;;;;;;4.04;100.00;103907.09;10099512;29;20040;-74
2022/01/13 21:26:28;;;;;;;26.38;12.88;;;;;;;4.01;100.00;103899.19;10099989;29;20466;-73
2022/01/13 21:31:28;;;;;;;50.22;17.88;;;;;;;3.88;100.00;103901.66;10113084;29;20041;-73
2022/01/13 21:36:30;;;;;;;46.20;15.48;;;;;;;3.88;100.00;103907.88;10097442;29;20072;-74
2022/01/13 21:41:32;;;;;;;30.13;16.20;;;;;;;3.89;100.00;103906.97;10097378;29;20033;-73
2022/01/13 21:46:34;;;;;;;22.45;15.73;;;;;;;3.91;100.00;103899.69;10098188;29;20120;-73
2022/01/13 21:51:34;;;;;;;29.38;17.60;;;;;;;3.99;100.00;103887.69;10097672;29;20072;-74
2022/01/13 21:56:35;;;;;;;31.90;17.23;;;;;;;4.01;100.00;103896.53;10112439;29;20069;-73
2022/01/13 22:01:35;;;;;;;28.83;14.85;;;;;;;3.96;100.00;103896.78;10097186;29;20061;-73
2022/01/13 22:06:36;;;;;;;27.58;15.23;;;;;;;3.96;100.00;103894.09;10112474;29;20489;-75
2022/01/13 22:11:36;;;;;;;39.25;17.10;;;;;;;3.98;100.00;103892.19;10098241;29;20128;-73
2022/01/13 22:16:37;;;;;;;45.75;16.10;;;;;;;3.97;100.00;103894.00;10098215;29;20390;-73
2022/01/13 22:21:37;;;;;;;39.25;14.30;;;;;;;4.00;100.00;103901.03;10098153;29;20097;-73
2022/01/13 22:26:38;;;;;;;49.13;16.58;;;;;;;4.04;100.00;103896.34;10099689;29;20343;-74
2022/01/13 22:31:38;;;;;;;42.83;17.98;;;;;;;4.03;100.00;103883.91;10112184;29;20373;-73
2022/01/13 22:36:38;;;;;;;20.85;14.73;;;;;;;4.09;100.00;103888.94;10098388;29;20044;-74
2022/01/13 22:41:39;;;;;;;25.92;16.38;;;;;;;4.14;100.00;103878.81;10096070;29;20057;-74
2022/01/13 22:46:39;;;;;;;32.00;17.30;;;;;;;4.20;100.00;103881.19;10096032;29;20406;-73
2022/01/13 22:51:40;;;;;;;29.63;15.35;;;;;;;4.30;100.00;103884.22;10096270;29;20045;-73
2022/01/13 22:56:40;;;;;;;17.58;13.77;;;;;;;4.33;100.00;103881.38;10099389;29;20124;-74
2022/01/13 23:01:41;;;;;;;52.85;16.83;;;;;;;4.36;100.00;103883.91;10118679;29;20048;-73
2022/01/13 23:06:41;;;;;;;35.35;15.75;;;;;;;4.30;100.00;103878.88;10103398;29;20078;-74
2022/01/13 23:11:42;;;;;;;23.73;17.38;;;;;;;4.28;100.00;103870.06;10118863;29;20037;-74
2022/01/13 23:22:14;;;;;;;25.73;14.32;;;;;;;4.30;100.00;103874.34;10103071;29;20481;-74